createdAt,value
2018-01-02T00:00:44.238Z,988.91
2018-01-02T00:01:54.300Z,988.96
2018-01-02T00:03:04.126Z,988.9
2018-01-02T00:04:14.259Z,988.9
2018-01-02T00:05:24.323Z,988.88
2018-01-02T00:06:34.389Z,988.87
2018-01-02T00:07:44.485Z,988.88
2018-01-02T00:08:54.564Z,988.84
2018-01-02T00:10:04.607Z,988.84
2018-01-02T00:11:14.708Z,988.84
2018-01-02T00:12:24.765Z,988.82
2018-01-02T00:13:34.824Z,988.82
2018-01-02T00:14:44.888Z,988.79
2018-01-02T00:15:54.944Z,988.75
2018-01-02T00:17:04.763Z,988.75
2018-01-02T00:18:14.828Z,988.77
2018-01-02T00:19:24.616Z,988.78
2018-01-02T00:20:34.679Z,988.84
2018-01-02T00:21:44.739Z,988.84
2018-01-02T00:22:54.805Z,988.87
2018-01-02T00:24:04.878Z,988.87
2018-01-02T00:25:15.038Z,988.91
2018-01-02T00:26:25.084Z,988.91
2018-01-02T00:27:34.863Z,988.87
2018-01-02T00:28:44.922Z,988.9
2018-01-02T00:29:54.714Z,988.87
2018-01-02T00:31:04.808Z,988.91
2018-01-02T00:32:14.848Z,988.87
2018-01-02T00:33:24.894Z,988.91
2018-01-02T00:34:34.932Z,988.86
2018-01-02T00:35:44.992Z,988.84
2018-01-02T00:36:55.058Z,988.84
2018-01-02T00:38:05.124Z,988.82
2018-01-02T00:39:15.168Z,988.82
2018-01-02T00:40:25.225Z,988.82
2018-01-02T00:41:35.291Z,988.79
2018-01-02T00:42:45.341Z,988.83
2018-01-02T00:43:55.369Z,988.88
2018-01-02T00:45:05.166Z,988.88
2018-01-02T00:46:14.957Z,988.87
2018-01-02T00:47:25.013Z,988.87
2018-01-02T00:48:35.144Z,988.86
2018-01-02T00:49:45.207Z,988.87
2018-01-02T00:50:55.008Z,988.85
2018-01-02T00:52:05.064Z,988.83
2018-01-02T00:53:14.876Z,988.84
2018-01-02T00:54:25.030Z,988.84
2018-01-02T00:55:34.810Z,988.88
2018-01-02T00:56:44.889Z,988.87
2018-01-02T00:57:54.665Z,988.89
2018-01-02T00:59:04.453Z,988.92
2018-01-02T01:00:14.533Z,988.88
2018-01-02T01:01:24.383Z,988.9
2018-01-02T01:02:34.219Z,988.85
2018-01-02T01:03:44.017Z,988.9
2018-01-02T01:04:53.817Z,988.89
2018-01-02T01:06:03.905Z,988.92
2018-01-02T01:07:13.979Z,988.96
2018-01-02T01:08:24.078Z,989.02
2018-01-02T01:09:34.127Z,989.06
2018-01-02T01:10:44.190Z,989.05
2018-01-02T01:11:54.279Z,989.05
2018-01-02T01:13:04.092Z,989.01
2018-01-02T01:14:14.137Z,988.96
2018-01-02T01:15:24.171Z,988.86
2018-01-02T01:16:34.217Z,988.84
2018-01-02T01:17:44.274Z,988.8
2018-01-02T01:18:54.337Z,988.8
2018-01-02T01:20:04.419Z,988.79
2018-01-02T01:21:14.464Z,988.88
2018-01-02T01:22:24.021Z,988.88
2018-01-02T01:23:34.073Z,988.9
2018-01-02T01:24:44.130Z,988.93
2018-01-02T01:25:55.289Z,989
2018-01-02T01:27:05.354Z,989.05
2018-01-02T01:28:15.412Z,989.06
2018-01-02T01:29:25.473Z,989.07
2018-01-02T01:30:35.546Z,989.1
2018-01-02T01:31:45.592Z,989.03
2018-01-02T01:32:55.678Z,989.03
2018-01-02T01:34:05.741Z,989.04
2018-01-02T01:35:15.625Z,988.95
2018-01-02T01:36:25.174Z,988.93
2018-01-02T01:37:35.227Z,988.92
2018-01-02T01:38:45.281Z,988.89
2018-01-02T01:39:55.091Z,988.9
2018-01-02T01:41:05.195Z,988.85
2018-01-02T01:42:15.003Z,988.88
2018-01-02T01:43:25.060Z,988.94
2018-01-02T01:44:35.158Z,988.97
2018-01-02T01:45:44.957Z,989.04
2018-01-02T01:46:55.012Z,989.05
2018-01-02T01:48:05.058Z,989.12
2018-01-02T01:49:14.854Z,989.17
2018-01-02T01:50:24.906Z,989.16
2018-01-02T01:51:34.956Z,989.16
2018-01-02T01:52:45.050Z,989.12
2018-01-02T01:53:55.090Z,989.06
2018-01-02T01:55:04.912Z,988.98
2018-01-02T01:56:14.711Z,988.88
2018-01-02T01:57:24.783Z,988.87
2018-01-02T01:58:34.610Z,988.83
2018-01-02T01:59:44.129Z,988.83
2018-01-02T02:00:53.919Z,988.86
2018-01-02T02:02:03.965Z,988.85
2018-01-02T02:03:14.014Z,988.81
2018-01-02T02:04:24.051Z,988.79
2018-01-02T02:05:34.101Z,988.8
2018-01-02T02:06:44.146Z,988.77
2018-01-02T02:07:54.206Z,988.75
2018-01-02T02:09:04.252Z,988.73
2018-01-02T02:10:14.304Z,988.73
2018-01-02T02:11:24.364Z,988.7
2018-01-02T02:12:34.407Z,988.75
2018-01-02T02:13:44.454Z,988.72
2018-01-02T02:14:54.522Z,988.71
2018-01-02T02:16:04.614Z,988.82
2018-01-02T02:17:14.661Z,988.84
2018-01-02T02:18:24.699Z,988.88
2018-01-02T02:19:34.486Z,988.94
2018-01-02T02:20:44.544Z,989.01
2018-01-02T02:21:54.325Z,988.98
2018-01-02T02:23:04.435Z,989.01
2018-01-02T02:24:14.485Z,989.04
2018-01-02T02:25:24.531Z,989.14
2018-01-02T02:26:34.580Z,989.19
2018-01-02T02:27:44.157Z,989.19
2018-01-02T02:28:54.211Z,989.22
2018-01-02T02:30:04.258Z,989.15
2018-01-02T02:31:14.309Z,989.17
2018-01-02T02:32:24.096Z,989.23
2018-01-02T02:33:34.154Z,989.22
2018-01-02T02:34:43.968Z,989.17
2018-01-02T02:35:53.767Z,989.17
2018-01-02T02:37:03.624Z,989.23
2018-01-02T02:38:13.401Z,989.23
2018-01-02T02:39:23.493Z,989.26
2018-01-02T02:40:33.541Z,989.26
2018-01-02T02:41:43.336Z,989.28
2018-01-02T02:42:53.143Z,989.26
2018-01-02T02:44:03.190Z,989.25
2018-01-02T02:45:13.239Z,989.25
2018-01-02T02:46:23.302Z,989.2
2018-01-02T02:47:33.345Z,989.16
2018-01-02T02:48:43.160Z,989.04
2018-01-02T02:49:53.211Z,989.06
2018-01-02T02:51:03.043Z,989.07
2018-01-02T02:52:13.092Z,989.11
2018-01-02T02:53:22.907Z,989.13
2018-01-02T02:54:32.974Z,989.04
2018-01-02T02:55:43.031Z,988.97
2018-01-02T02:56:53.084Z,988.96
2018-01-02T02:58:03.137Z,988.96
2018-01-02T02:59:13.191Z,988.86
2018-01-02T03:00:23.264Z,988.82
2018-01-02T03:01:33.320Z,988.83
2018-01-02T03:34:06.753Z,988.7
2018-01-02T03:35:16.803Z,988.7
2018-01-02T03:36:26.851Z,988.67
2018-01-02T03:37:36.620Z,988.68
2018-01-02T03:38:46.660Z,988.76
2018-01-02T03:39:56.498Z,988.75
2018-01-02T03:41:06.569Z,988.68
2018-01-02T03:42:16.364Z,988.67
2018-01-02T03:43:26.423Z,988.65
2018-01-02T03:44:36.464Z,988.64
2018-01-02T03:45:45.996Z,988.68
2018-01-02T03:46:56.099Z,988.79
2018-01-02T03:48:05.629Z,988.78
2018-01-02T03:49:14.901Z,988.79
2018-01-02T03:50:24.965Z,988.8
2018-01-02T03:51:34.746Z,988.8
2018-01-02T03:52:44.801Z,988.85
2018-01-02T03:53:54.849Z,988.88
2018-01-02T03:55:04.659Z,988.88
2018-01-02T03:56:14.707Z,988.88
2018-01-02T03:57:24.767Z,988.93
2018-01-02T03:58:34.555Z,988.95
2018-01-02T03:59:44.611Z,988.92
2018-01-02T04:00:54.887Z,988.93
2018-01-02T04:02:04.935Z,988.98
2018-01-02T04:03:14.992Z,988.95
2018-01-02T04:04:24.786Z,988.95
2018-01-02T04:05:34.843Z,988.93
2018-01-02T04:06:44.633Z,988.89
2018-01-02T04:07:54.699Z,988.93
2018-01-02T04:09:04.762Z,988.79
2018-01-02T04:10:14.801Z,988.73
2018-01-02T04:11:24.861Z,988.82
2018-01-02T04:12:34.911Z,988.88
2018-01-02T04:13:44.963Z,988.96
2018-01-02T04:14:55.075Z,988.97
2018-01-02T04:16:04.866Z,989.01
2018-01-02T04:17:14.388Z,989.07
2018-01-02T04:18:24.431Z,989.03
2018-01-02T04:19:34.474Z,988.97
2018-01-02T04:20:44.159Z,988.99
2018-01-02T04:21:54.196Z,989.1
2018-01-02T04:23:03.982Z,989.14
2018-01-02T04:24:14.030Z,989.23
2018-01-02T04:25:24.071Z,989.19
2018-01-02T04:26:33.903Z,989.18
2018-01-02T04:27:43.930Z,989.11
2018-01-02T04:28:53.709Z,989.13
2018-01-02T04:30:03.762Z,989.12
2018-01-02T04:31:13.812Z,989.19
2018-01-02T04:32:23.868Z,989.26
2018-01-02T04:33:33.907Z,989.25
2018-01-02T04:34:43.969Z,989.23
2018-01-02T04:35:54.026Z,989.24
2018-01-02T04:37:04.064Z,989.29
2018-01-02T04:38:13.842Z,989.36
2018-01-02T04:39:23.896Z,989.39
2018-01-02T04:40:33.938Z,989.42
2018-01-02T04:41:43.976Z,989.36
2018-01-02T04:42:53.505Z,989.37
2018-01-02T04:44:03.549Z,989.4
2018-01-02T04:45:13.123Z,989.38
2018-01-02T04:46:23.168Z,989.36
2018-01-02T04:47:33.214Z,989.37
2018-01-02T04:48:43.267Z,989.24
2018-01-02T04:49:53.065Z,989.32
2018-01-02T04:51:03.106Z,989.29
2018-01-02T04:52:12.887Z,989.37
2018-01-02T04:53:22.690Z,989.31
2018-01-02T04:54:32.724Z,989.26
2018-01-02T04:55:42.816Z,989.25
2018-01-02T04:56:52.617Z,989.2
2018-01-02T04:58:02.664Z,989.27
2018-01-02T04:59:12.444Z,989.27
2018-01-02T05:00:22.493Z,989.26
2018-01-02T05:01:32.595Z,989.34
2018-01-02T05:02:42.644Z,989.27
2018-01-02T05:03:52.436Z,989.28
2018-01-02T05:05:02.485Z,989.35
2018-01-02T05:06:12.541Z,989.39
2018-01-02T05:07:22.337Z,989.32
2018-01-02T05:08:31.857Z,989.32
2018-01-02T05:09:41.390Z,989.37
2018-01-02T05:10:51.446Z,989.36
2018-01-02T05:12:01.501Z,989.38
2018-01-02T05:13:11.558Z,989.4
2018-01-02T05:14:21.351Z,989.35
2018-01-02T05:15:31.403Z,989.4
2018-01-02T05:16:41.197Z,989.41
2018-01-02T05:17:51.251Z,989.39
2018-01-02T05:19:01.323Z,989.37
2018-01-02T05:20:11.116Z,989.34
2018-01-02T05:21:20.910Z,989.33
2018-01-02T05:22:30.968Z,989.36
2018-01-02T05:23:41.013Z,989.39
2018-01-02T05:24:50.855Z,989.37
2018-01-02T05:26:00.652Z,989.37
2018-01-02T05:27:10.693Z,989.41
2018-01-02T05:28:20.731Z,989.42
2018-01-02T05:29:30.806Z,989.45
2018-01-02T05:30:40.913Z,989.4
2018-01-02T05:31:50.470Z,989.41
2018-01-02T05:33:00.530Z,989.4
2018-01-02T05:34:10.574Z,989.4
2018-01-02T05:35:20.626Z,989.39
2018-01-02T05:36:30.482Z,989.37
2018-01-02T05:37:40.534Z,989.39
2018-01-02T05:38:50.585Z,989.48
2018-01-02T05:40:00.642Z,989.51
2018-01-02T05:41:10.698Z,989.5
2018-01-02T05:42:20.501Z,989.53
2018-01-02T05:43:30.576Z,989.54
2018-01-02T05:44:40.668Z,989.54
2018-01-02T05:45:50.723Z,989.49
2018-01-02T05:47:00.769Z,989.55
2018-01-02T05:48:10.561Z,989.58
2018-01-02T05:49:20.599Z,989.57
2018-01-02T05:50:30.648Z,989.64
2018-01-02T05:51:40.432Z,989.66
2018-01-02T05:52:50.236Z,989.69
2018-01-02T05:54:00.335Z,989.72
2018-01-02T05:55:10.393Z,989.61
2018-01-02T05:56:20.433Z,989.55
2018-01-02T05:57:30.496Z,989.58
2018-01-02T05:58:40.534Z,989.63
2018-01-02T05:59:50.671Z,989.61
2018-01-02T06:01:00.723Z,989.67
2018-01-02T06:02:10.780Z,989.56
2018-01-02T06:03:20.558Z,989.6
2018-01-02T06:04:30.604Z,989.59
2018-01-02T06:05:40.711Z,989.53
2018-01-02T06:06:50.498Z,989.57
2018-01-02T06:08:00.291Z,989.64
2018-01-02T06:09:09.878Z,989.64
2018-01-02T06:10:19.913Z,989.57
2018-01-02T06:11:29.750Z,989.58
2018-01-02T06:12:39.797Z,989.58
2018-01-02T06:13:49.599Z,989.6
2018-01-02T06:14:59.665Z,989.56
2018-01-02T06:16:09.709Z,989.55
2018-01-02T06:17:19.809Z,989.55
2018-01-02T06:18:29.618Z,989.54
2018-01-02T06:19:39.682Z,989.57
2018-01-02T06:20:49.730Z,989.46
2018-01-02T06:21:59.790Z,989.46
2018-01-02T06:23:09.586Z,989.55
2018-01-02T06:24:19.627Z,989.54
2018-01-02T06:25:29.676Z,989.61
2018-01-02T06:26:39.719Z,989.55
2018-01-02T06:27:49.773Z,989.56
2018-01-02T06:28:59.832Z,989.63
2018-01-02T06:30:09.899Z,989.71
2018-01-02T06:31:19.961Z,989.65
2018-01-02T06:32:29.998Z,989.65
2018-01-02T06:33:40.054Z,989.64
2018-01-02T06:34:50.180Z,989.6
2018-01-02T06:35:59.852Z,989.66
2018-01-02T06:37:09.914Z,989.72
2018-01-02T06:38:19.952Z,989.68
2018-01-02T06:39:30.013Z,989.73
2018-01-02T06:40:40.141Z,989.79
2018-01-02T06:41:50.203Z,989.83
2018-01-02T06:43:00.247Z,989.76
2018-01-02T06:44:10.292Z,989.74
2018-01-02T06:45:20.102Z,989.89
2018-01-02T06:46:30.160Z,989.77
2018-01-02T06:47:39.946Z,989.65
2018-01-02T06:48:50.061Z,989.8
2018-01-02T06:50:00.099Z,989.76
2018-01-02T06:51:10.156Z,989.85
2018-01-02T06:52:20.254Z,989.87
2018-01-02T06:53:30.435Z,989.94
2018-01-02T06:54:40.489Z,989.89
2018-01-02T06:55:50.527Z,989.99
2018-01-02T06:57:00.568Z,990.02
2018-01-02T06:58:10.620Z,989.99
2018-01-02T06:59:20.708Z,989.97
2018-01-02T07:00:30.511Z,990.02
2018-01-02T07:01:40.305Z,990.03
2018-01-02T07:02:50.335Z,990.11
2018-01-02T07:04:00.127Z,990.17
2018-01-02T07:05:10.215Z,990.11
2018-01-02T07:06:20.272Z,990.07
2018-01-02T07:07:30.320Z,990.1
2018-01-02T07:08:40.391Z,990.14
2018-01-02T07:09:50.448Z,990.04
2018-01-02T07:11:00.234Z,990.19
2018-01-02T07:12:10.018Z,990.18
2018-01-02T07:13:20.089Z,990.19
2018-01-02T07:14:30.147Z,990.25
2018-01-02T07:15:40.195Z,990.22
2018-01-02T07:16:50.272Z,990.25
2018-01-02T07:18:00.338Z,990.29
2018-01-02T07:19:10.403Z,990.32
2018-01-02T07:20:20.445Z,990.36
2018-01-02T07:21:30.249Z,990.41
2018-01-02T07:22:40.042Z,990.37
2018-01-02T07:23:49.843Z,990.38
2018-01-02T07:24:59.918Z,990.45
2018-01-02T07:26:09.987Z,990.47
2018-01-02T07:27:20.039Z,990.48
2018-01-02T07:28:30.131Z,990.45
2018-01-02T07:29:39.898Z,990.48
2018-01-02T07:30:49.950Z,990.55
2018-01-02T07:32:00.008Z,990.58
2018-01-02T07:33:10.128Z,990.6
2018-01-02T07:34:20.172Z,990.58
2018-01-02T07:35:30.229Z,990.58
2018-01-02T07:36:40.263Z,990.67
2018-01-02T07:37:50.297Z,990.69
2018-01-02T07:39:00.391Z,990.8
2018-01-02T07:40:10.452Z,990.63
2018-01-02T07:41:20.523Z,990.6
2018-01-02T07:42:30.312Z,990.69
2018-01-02T07:43:40.104Z,990.65
2018-01-02T07:44:49.889Z,990.7
2018-01-02T07:45:59.700Z,990.71
2018-01-02T07:47:09.504Z,990.75
2018-01-02T07:48:19.316Z,990.62
2018-01-02T07:49:29.383Z,990.73
2018-01-02T07:50:39.522Z,990.77
2018-01-02T07:51:49.580Z,990.71
2018-01-02T07:52:59.631Z,990.86
2018-01-02T07:54:09.437Z,990.88
2018-01-02T07:55:19.492Z,990.79
2018-01-02T07:56:29.295Z,990.88
2018-01-02T07:57:39.344Z,990.85
2018-01-02T07:58:49.382Z,990.89
2018-01-02T07:59:59.440Z,990.9
2018-01-02T08:01:09.497Z,990.95
2018-01-02T08:02:19.289Z,991.01
2018-01-02T08:03:29.336Z,990.97
2018-01-02T08:04:39.128Z,990.96
2018-01-02T08:05:49.186Z,990.96
2018-01-02T08:06:59.237Z,990.94
2018-01-02T08:08:09.298Z,990.93
2018-01-02T08:09:19.371Z,991.05
2018-01-02T08:10:29.425Z,991.03
2018-01-02T08:11:39.221Z,990.99
2018-01-02T08:12:49.091Z,991.03
2018-01-02T08:13:59.212Z,991.11
2018-01-02T08:15:09.267Z,991.12
2018-01-02T08:16:19.312Z,991.11
2018-01-02T08:17:29.362Z,991.24
2018-01-02T08:18:39.417Z,991.16
2018-01-02T08:19:49.203Z,991.16
2018-01-02T08:20:59.251Z,991.09
2018-01-02T08:22:09.060Z,991.16
2018-01-02T08:23:19.134Z,991.14
2018-01-02T08:24:29.171Z,991.14
2018-01-02T08:25:39.232Z,991.29
2018-01-02T08:26:49.307Z,991.4
2018-01-02T08:27:59.404Z,991.32
2018-01-02T08:29:09.470Z,991.29
2018-01-02T08:30:19.272Z,991.28
2018-01-02T08:31:29.410Z,991.32
2018-01-02T08:32:39.471Z,991.35
2018-01-02T08:33:49.564Z,991.25
2018-01-02T08:34:59.387Z,991.23
2018-01-02T08:36:08.924Z,991.21
2018-01-02T08:37:20.031Z,991.25
2018-01-02T08:38:30.078Z,991.3
2018-01-02T08:39:40.124Z,991.23
2018-01-02T08:40:49.897Z,991.28
2018-01-02T08:41:59.685Z,991.24
2018-01-02T08:43:09.740Z,991.34
2018-01-02T08:44:19.519Z,991.35
2018-01-02T08:45:29.590Z,991.43
2018-01-02T08:46:39.639Z,991.35
2018-01-02T08:47:49.698Z,991.41
2018-01-02T08:48:59.497Z,991.43
2018-01-02T08:50:09.290Z,991.45
2018-01-02T08:51:19.064Z,991.41
2018-01-02T08:52:29.115Z,991.49
2018-01-02T08:53:39.152Z,991.52
2018-01-02T08:54:48.962Z,991.57
2018-01-02T08:55:58.757Z,991.52
2018-01-02T08:57:08.811Z,991.55
2018-01-02T08:58:18.863Z,991.58
2018-01-02T08:59:28.672Z,991.57
2018-01-02T09:00:38.773Z,991.57
2018-01-02T09:01:49.423Z,991.57
2018-01-02T09:02:59.495Z,991.61
2018-01-02T09:04:09.304Z,991.56
2018-01-02T09:05:18.838Z,991.59
2018-01-02T09:06:28.910Z,991.62
2018-01-02T09:07:38.965Z,991.56
2018-01-02T09:08:48.768Z,991.67
2018-01-02T09:09:58.039Z,991.67
2018-01-02T09:11:08.104Z,991.61
2018-01-02T09:12:17.908Z,991.62
2018-01-02T09:13:27.950Z,991.61
2018-01-02T09:14:38.057Z,991.61
2018-01-02T09:15:48.121Z,991.66
2018-01-02T09:16:58.197Z,991.61
2018-01-02T09:18:08.301Z,991.64
2018-01-02T09:19:18.098Z,991.72
2018-01-02T09:20:28.157Z,991.68
2018-01-02T09:21:38.210Z,991.67
2018-01-02T09:22:48.347Z,991.69
2018-01-02T09:23:58.447Z,991.63
2018-01-02T09:25:08.489Z,991.6
2018-01-02T09:26:18.294Z,991.62
2018-01-02T09:27:28.354Z,991.66
2018-01-02T09:28:38.422Z,991.56
2018-01-02T09:29:48.470Z,991.65
2018-01-02T09:30:58.512Z,991.66
2018-01-02T09:32:08.554Z,991.66
2018-01-02T09:33:18.354Z,991.68
2018-01-02T09:34:28.391Z,991.75
2018-01-02T09:35:38.463Z,991.68
2018-01-02T09:36:48.293Z,991.67
2018-01-02T09:37:58.337Z,991.66
2018-01-02T09:39:08.143Z,991.7
2018-01-02T09:40:18.276Z,991.73
2018-01-02T09:41:28.331Z,991.76
2018-01-02T09:42:39.093Z,991.73
2018-01-02T09:43:49.152Z,991.7
2018-01-02T09:44:58.951Z,991.67
2018-01-02T09:46:09.032Z,991.78
2018-01-02T09:47:19.094Z,991.77
2018-01-02T09:48:29.142Z,991.67
2018-01-02T09:49:39.214Z,991.81
2018-01-02T09:50:49.272Z,991.76
2018-01-02T09:51:59.341Z,991.73
2018-01-02T09:53:09.398Z,991.74
2018-01-02T09:54:19.469Z,991.71
2018-01-02T09:55:29.254Z,991.72
2018-01-02T09:56:39.299Z,991.71
2018-01-02T09:57:49.382Z,991.83
2018-01-02T09:58:59.489Z,991.79
2018-01-02T10:00:09.299Z,991.78
2018-01-02T10:01:19.343Z,991.63
2018-01-02T10:02:29.393Z,991.77
2018-01-02T10:03:39.459Z,991.7
2018-01-02T10:04:49.562Z,991.64
2018-01-02T10:05:59.608Z,991.7
2018-01-02T10:07:09.143Z,991.65
2018-01-02T10:08:19.199Z,991.74
2018-01-02T10:09:29.002Z,991.65
2018-01-02T10:10:39.071Z,991.69
2018-01-02T10:11:49.126Z,991.66
2018-01-02T10:12:59.176Z,991.63
2018-01-02T10:14:08.981Z,991.73
2018-01-02T10:15:19.054Z,991.73
2018-01-02T10:16:28.846Z,991.62
2018-01-02T10:17:38.906Z,991.72
2018-01-02T10:18:49.011Z,991.82
2018-01-02T10:19:59.058Z,991.65
2018-01-02T10:21:09.110Z,991.71
2018-01-02T10:22:19.001Z,991.67
2018-01-02T10:23:29.074Z,991.62
2018-01-02T10:24:38.873Z,991.64
2018-01-02T10:25:48.934Z,991.77
2018-01-02T10:26:58.472Z,991.61
2018-01-02T10:28:08.271Z,991.65
2018-01-02T10:29:18.318Z,991.61
2018-01-02T10:30:28.366Z,991.68
2018-01-02T10:31:38.424Z,991.64
2018-01-02T10:32:48.477Z,991.63
2018-01-02T10:33:58.553Z,991.72
2018-01-02T10:35:08.612Z,991.6
2018-01-02T10:36:18.428Z,991.67
2018-01-02T10:37:28.482Z,991.72
2018-01-02T10:38:38.581Z,991.75
2018-01-02T10:39:48.640Z,991.74
2018-01-02T10:40:58.693Z,991.75
2018-01-02T10:42:08.790Z,991.76
2018-01-02T10:43:18.857Z,991.6
2018-01-02T10:44:28.901Z,991.74
2018-01-02T10:45:38.954Z,991.69
2018-01-02T10:46:48.740Z,991.75
2018-01-02T10:47:58.791Z,991.66
2018-01-02T10:49:08.870Z,991.74
2018-01-02T10:50:18.945Z,991.73
2018-01-02T10:51:28.997Z,991.56
2018-01-02T10:52:39.040Z,991.85
2018-01-02T10:53:49.089Z,991.74
2018-01-02T10:54:58.889Z,991.67
2018-01-02T10:56:08.965Z,991.71
2018-01-02T10:57:19.038Z,991.74
2018-01-02T10:58:29.100Z,991.72
2018-01-02T10:59:38.901Z,991.79
2018-01-02T11:00:48.970Z,991.78
2018-01-02T11:01:59.044Z,991.64
2018-01-02T11:03:09.130Z,991.66
2018-01-02T11:04:18.940Z,991.67
2018-01-02T11:05:28.738Z,991.73
2018-01-02T11:06:38.806Z,991.69
2018-01-02T11:07:48.875Z,991.69
2018-01-02T11:08:58.915Z,991.69
2018-01-02T11:10:08.977Z,991.66
2018-01-02T11:11:19.038Z,991.58
2018-01-02T11:12:29.119Z,991.65
2018-01-02T11:13:39.162Z,991.67
2018-01-02T11:14:49.216Z,991.69
2018-01-02T11:15:59.334Z,991.62
2018-01-02T11:17:09.401Z,991.62
2018-01-02T11:18:19.473Z,991.67
2018-01-02T11:19:29.539Z,991.7
2018-01-02T11:20:39.345Z,991.5
2018-01-02T11:21:49.138Z,991.52
2018-01-02T11:22:59.209Z,991.56
2018-01-02T11:24:09.264Z,991.59
2018-01-02T11:25:19.081Z,991.6
2018-01-02T11:26:29.143Z,991.52
2018-01-02T11:27:39.235Z,991.54
2018-01-02T11:28:49.294Z,991.5
2018-01-02T11:29:58.870Z,991.53
2018-01-02T11:31:08.941Z,991.46
2018-01-02T11:32:19.017Z,991.5
2018-01-02T11:33:28.818Z,991.39
2018-01-02T11:34:38.882Z,991.45
2018-01-02T11:35:48.676Z,991.48
2018-01-02T11:36:58.527Z,991.56
2018-01-02T11:38:08.613Z,991.37
2018-01-02T11:39:18.685Z,991.49
2018-01-02T11:40:28.730Z,991.5
2018-01-02T11:41:39.025Z,991.62
2018-01-02T11:42:49.132Z,991.63
2018-01-02T11:43:59.179Z,991.62
2018-01-02T11:45:09.238Z,991.64
2018-01-02T11:46:19.302Z,991.63
2018-01-02T11:47:29.356Z,991.7
2018-01-02T11:48:39.213Z,991.68
2018-01-02T11:49:49.297Z,991.74
2018-01-02T11:50:59.372Z,991.65
2018-01-02T11:52:09.468Z,991.69
2018-01-02T11:53:19.268Z,991.68
2018-01-02T11:54:28.815Z,991.52
2018-01-02T11:55:38.896Z,991.66
2018-01-02T11:56:48.966Z,991.71
2018-01-02T11:57:58.804Z,991.71
2018-01-02T11:59:08.868Z,991.92
2018-01-02T12:00:18.922Z,991.59
2018-01-02T12:01:28.976Z,991.7
2018-01-02T12:02:39.038Z,991.64
2018-01-02T12:03:49.082Z,991.6
2018-01-02T12:04:59.150Z,991.65
2018-01-02T12:06:08.949Z,991.61
2018-01-02T12:07:19.014Z,991.63
2018-01-02T12:08:28.826Z,991.54
2018-01-02T12:09:38.630Z,991.69
2018-01-02T12:10:48.444Z,991.6
2018-01-02T12:11:58.249Z,991.74
2018-01-02T12:13:08.345Z,991.64
2018-01-02T12:14:18.403Z,991.83
2018-01-02T12:15:28.457Z,991.7
2018-01-02T12:16:38.524Z,991.68
2018-01-02T12:17:48.357Z,991.67
2018-01-02T12:18:58.486Z,991.69
2018-01-02T12:20:08.560Z,991.76
2018-01-02T12:21:18.112Z,991.71
2018-01-02T12:22:28.189Z,991.79
2018-01-02T12:23:38.253Z,991.76
2018-01-02T12:24:48.062Z,991.76
2018-01-02T12:25:57.858Z,991.65
2018-01-02T12:27:07.915Z,991.76
2018-01-02T12:28:17.978Z,991.77
2018-01-02T12:29:27.788Z,991.81
2018-01-02T12:30:37.585Z,991.81
2018-01-02T12:31:47.672Z,991.85
2018-01-02T12:32:57.732Z,991.78
2018-01-02T12:34:07.797Z,991.8
2018-01-02T12:35:17.903Z,991.75
2018-01-02T12:36:28.037Z,991.9
2018-01-02T12:37:37.858Z,991.8
2018-01-02T12:38:47.657Z,991.87
2018-01-02T12:39:57.772Z,991.77
2018-01-02T12:41:07.988Z,991.86
2018-01-02T12:42:18.068Z,991.83
2018-01-02T12:43:28.154Z,991.89
2018-01-02T12:44:38.199Z,991.91
2018-01-02T12:45:48.254Z,991.87
2018-01-02T12:46:58.080Z,991.97
2018-01-02T12:48:08.154Z,991.93
2018-01-02T12:49:17.999Z,991.88
2018-01-02T12:50:27.851Z,991.87
2018-01-02T12:51:37.650Z,991.9
2018-01-02T12:52:47.722Z,991.89
2018-01-02T12:53:57.851Z,991.96
2018-01-02T12:55:07.657Z,991.99
2018-01-02T12:56:17.730Z,991.88
2018-01-02T12:57:27.795Z,991.91
2018-01-02T12:58:37.886Z,992.02
2018-01-02T12:59:47.943Z,991.96
2018-01-02T13:00:58.009Z,991.98
2018-01-02T13:02:08.080Z,991.97
2018-01-02T13:03:18.169Z,991.96
2018-01-02T13:04:28.252Z,991.96
2018-01-02T13:05:38.360Z,991.98
2018-01-02T13:06:48.169Z,991.91
2018-01-02T13:07:57.967Z,991.87
2018-01-02T13:09:07.511Z,991.94
2018-01-02T13:10:17.575Z,991.96
2018-01-02T13:11:27.701Z,991.97
2018-01-02T13:12:37.772Z,992.06
2018-01-02T13:13:47.829Z,992.01
2018-01-02T13:14:57.893Z,991.91
2018-01-02T13:16:07.184Z,992.09
2018-01-02T13:17:17.259Z,991.97
2018-01-02T13:18:27.337Z,992.06
2018-01-02T13:19:37.398Z,992.02
2018-01-02T13:20:47.467Z,992.06
2018-01-02T13:21:57.505Z,992.04
2018-01-02T13:23:07.571Z,992.03
2018-01-02T13:24:17.676Z,992.03
2018-01-02T13:25:27.754Z,992.08
2018-01-02T13:26:37.838Z,992.1
2018-01-02T13:27:47.664Z,992.17
2018-01-02T13:28:57.523Z,992.01
2018-01-02T13:30:07.603Z,991.99
2018-01-02T13:31:17.417Z,992.14
2018-01-02T13:32:27.228Z,992.13
2018-01-02T13:33:37.032Z,992.21
2018-01-02T13:34:47.161Z,992.28
2018-01-02T13:35:57.220Z,992.31
2018-01-02T13:37:07.308Z,992.28
2018-01-02T13:38:17.114Z,992.27
2018-01-02T13:39:27.184Z,992.41
2018-01-02T13:40:37.301Z,992.34
2018-01-02T13:41:47.120Z,992.28
2018-01-02T13:42:57.171Z,992.28
2018-01-02T13:44:07.232Z,992.32
2018-01-02T13:45:17.352Z,992.34
2018-01-02T13:46:27.409Z,992.29
2018-01-02T13:47:37.464Z,992.27
2018-01-02T13:48:47.282Z,992.26
2018-01-02T13:49:57.327Z,992.32
2018-01-02T13:51:07.127Z,992.41
2018-01-02T13:52:17.176Z,992.3
2018-01-02T13:53:27.243Z,992.35
2018-01-02T13:54:37.315Z,992.31
2018-01-02T13:55:47.396Z,992.32
2018-01-02T13:56:57.478Z,992.33
2018-01-02T13:58:07.550Z,992.38
2018-01-02T13:59:17.653Z,992.38
2018-01-02T14:00:27.181Z,992.34
2018-01-02T14:01:37.255Z,992.4
2018-01-02T14:02:47.092Z,992.3
2018-01-02T14:03:57.137Z,992.37
2018-01-02T14:05:07.055Z,992.3
2018-01-02T14:06:17.108Z,992.35
2018-01-02T14:07:26.897Z,992.28
2018-01-02T14:08:36.442Z,992.39
2018-01-02T14:09:46.525Z,992.33
2018-01-02T14:10:56.646Z,992.26
2018-01-02T14:12:06.706Z,992.59
2018-01-02T14:13:16.819Z,992.46
2018-01-02T14:14:26.893Z,992.42
2018-01-02T14:15:36.966Z,992.51
2018-01-02T14:16:47.041Z,992.5
2018-01-02T14:17:57.129Z,992.52
2018-01-02T14:19:06.953Z,992.51
2018-01-02T14:20:17.004Z,992.51
2018-01-02T14:21:27.057Z,992.58
2018-01-02T14:22:37.122Z,992.59
2018-01-02T14:23:47.184Z,992.65
2018-01-02T14:24:57.258Z,992.56
2018-01-02T14:26:07.346Z,992.73
2018-01-02T14:27:17.414Z,992.62
2018-01-02T14:28:27.486Z,992.62
2018-01-02T14:29:37.285Z,992.63
2018-01-02T14:30:47.353Z,992.72
2018-01-02T14:31:57.437Z,992.75
2018-01-02T14:33:07.499Z,992.73
2018-01-02T14:34:17.580Z,992.75
2018-01-02T14:35:27.676Z,992.71
2018-01-02T14:36:37.743Z,992.76
2018-01-02T14:37:47.536Z,992.71
2018-01-02T14:38:57.580Z,992.8
2018-01-02T14:40:07.640Z,992.76
2018-01-02T14:41:17.713Z,992.76
2018-01-02T14:42:27.767Z,992.76
2018-01-02T14:43:37.847Z,992.7
2018-01-02T14:44:47.896Z,992.74
2018-01-02T14:45:57.975Z,992.89
2018-01-02T14:47:08.027Z,992.75
2018-01-02T14:48:18.122Z,992.92
2018-01-02T14:49:28.184Z,992.87
2018-01-02T14:50:38.232Z,992.89
2018-01-02T14:51:47.783Z,992.87
2018-01-02T14:52:57.857Z,992.97
2018-01-02T14:54:07.967Z,992.89
2018-01-02T14:55:18.047Z,992.88
2018-01-02T14:56:27.847Z,993
2018-01-02T14:57:37.646Z,992.91
2018-01-02T14:58:47.458Z,992.96
2018-01-02T14:59:57.520Z,992.95
2018-01-02T15:01:07.561Z,992.95
2018-01-02T15:02:17.638Z,992.94
2018-01-02T15:03:27.426Z,993.08
2018-01-02T15:04:37.515Z,993.06
2018-01-02T15:05:47.588Z,993.12
2018-01-02T15:06:57.651Z,993.06